sensor_id;sensor_type;location;lat;lon;timestamp;P1;durP1;ratioP1;P2;durP2;ratioP2
35602;SDS011;21725;50.836;4.368;2023-05-29T00:00:56;20.48;;;6.82;;
35602;SDS011;21725;50.836;4.368;2023-05-29T00:03:56;15.32;;;6.32;;
35602;SDS011;21725;50.836;4.368;2023-05-29T00:06:57;13.70;;;6.35;;
35602;SDS011;21725;50.836;4.368;2023-05-29T00:09:58;14.98;;;7.07;;
35602;SDS011;21725;50.836;4.368;2023-05-29T00:12:59;14.80;;;7.00;;
35602;SDS011;21725;50.836;4.368;2023-05-29T00:16:01;12.85;;;6.80;;
35602;SDS011;21725;50.836;4.368;2023-05-29T00:19:03;12.02;;;6.80;;
35602;SDS011;21725;50.836;4.368;2023-05-29T00:22:04;17.05;;;8.00;;
35602;SDS011;21725;50.836;4.368;2023-05-29T00:25:05;13.38;;;7.68;;
35602;SDS011;21725;50.836;4.368;2023-05-29T00:28:07;13.68;;;6.68;;
35602;SDS011;21725;50.836;4.368;2023-05-29T00:31:09;17.65;;;8.40;;
35602;SDS011;21725;50.836;4.368;2023-05-29T00:34:11;10.90;;;6.40;;
35602;SDS011;21725;50.836;4.368;2023-05-29T00:37:12;13.30;;;7.72;;
35602;SDS011;21725;50.836;4.368;2023-05-29T00:40:13;16.85;;;7.22;;
35602;SDS011;21725;50.836;4.368;2023-05-29T00:43:14;12.95;;;7.90;;
35602;SDS011;21725;50.836;4.368;2023-05-29T00:46:15;12.98;;;6.45;;
35602;SDS011;21725;50.836;4.368;2023-05-29T00:49:16;19.88;;;7.28;;
35602;SDS011;21725;50.836;4.368;2023-05-29T00:52:17;14.27;;;7.35;;
35602;SDS011;21725;50.836;4.368;2023-05-29T00:55:20;16.98;;;7.55;;
35602;SDS011;21725;50.836;4.368;2023-05-29T00:58:21;13.73;;;7.80;;
35602;SDS011;21725;50.836;4.368;2023-05-29T01:01:22;23.77;;;10.20;;
35602;SDS011;21725;50.836;4.368;2023-05-29T01:04:23;19.52;;;7.57;;
35602;SDS011;21725;50.836;4.368;2023-05-29T01:07:25;19.55;;;7.78;;
35602;SDS011;21725;50.836;4.368;2023-05-29T01:10:26;16.10;;;7.93;;
35602;SDS011;21725;50.836;4.368;2023-05-29T01:13:29;14.90;;;7.35;;
35602;SDS011;21725;50.836;4.368;2023-05-29T01:20:02;18.77;;;7.03;;
35602;SDS011;21725;50.836;4.368;2023-05-29T01:29:52;15.55;;;7.70;;
35602;SDS011;21725;50.836;4.368;2023-05-29T01:32:55;18.00;;;7.57;;
35602;SDS011;21725;50.836;4.368;2023-05-29T01:35:56;16.83;;;7.82;;
35602;SDS011;21725;50.836;4.368;2023-05-29T01:38:57;15.63;;;8.05;;
35602;SDS011;21725;50.836;4.368;2023-05-29T01:41:59;14.05;;;8.35;;
35602;SDS011;21725;50.836;4.368;2023-05-29T01:45:00;14.73;;;8.65;;
35602;SDS011;21725;50.836;4.368;2023-05-29T01:48:03;17.02;;;7.05;;
35602;SDS011;21725;50.836;4.368;2023-05-29T01:51:05;14.90;;;7.97;;
35602;SDS011;21725;50.836;4.368;2023-05-29T01:54:07;13.98;;;8.63;;
35602;SDS011;21725;50.836;4.368;2023-05-29T01:57:08;15.20;;;8.15;;
35602;SDS011;21725;50.836;4.368;2023-05-29T02:00:09;16.83;;;7.57;;
35602;SDS011;21725;50.836;4.368;2023-05-29T02:03:10;14.50;;;7.60;;
35602;SDS011;21725;50.836;4.368;2023-05-29T02:06:11;18.05;;;8.48;;
35602;SDS011;21725;50.836;4.368;2023-05-29T02:09:12;14.90;;;7.70;;
35602;SDS011;21725;50.836;4.368;2023-05-29T02:12:14;17.52;;;7.90;;
35602;SDS011;21725;50.836;4.368;2023-05-29T02:15:14;15.32;;;7.00;;
35602;SDS011;21725;50.836;4.368;2023-05-29T02:18:15;21.00;;;7.47;;
35602;SDS011;21725;50.836;4.368;2023-05-29T02:21:20;18.95;;;7.53;;
35602;SDS011;21725;50.836;4.368;2023-05-29T02:24:20;13.05;;;6.50;;
35602;SDS011;21725;50.836;4.368;2023-05-29T02:27:21;19.05;;;7.65;;
35602;SDS011;21725;50.836;4.368;2023-05-29T02:30:22;15.73;;;5.70;;
35602;SDS011;21725;50.836;4.368;2023-05-29T02:33:23;20.13;;;6.65;;
35602;SDS011;21725;50.836;4.368;2023-05-29T02:36:23;13.98;;;6.30;;
35602;SDS011;21725;50.836;4.368;2023-05-29T02:39:24;28.95;;;6.93;;
35602;SDS011;21725;50.836;4.368;2023-05-29T02:42:25;11.13;;;6.13;;
35602;SDS011;21725;50.836;4.368;2023-05-29T02:45:26;15.55;;;7.88;;
35602;SDS011;21725;50.836;4.368;2023-05-29T02:48:26;19.20;;;7.28;;
35602;SDS011;21725;50.836;4.368;2023-05-29T02:51:29;16.88;;;7.28;;
35602;SDS011;21725;50.836;4.368;2023-05-29T02:54:31;13.30;;;5.72;;
35602;SDS011;21725;50.836;4.368;2023-05-29T02:57:32;15.55;;;5.15;;
35602;SDS011;21725;50.836;4.368;2023-05-29T03:00:33;14.45;;;5.47;;
35602;SDS011;21725;50.836;4.368;2023-05-29T03:03:34;18.10;;;6.03;;
35602;SDS011;21725;50.836;4.368;2023-05-29T03:06:35;12.20;;;5.28;;
35602;SDS011;21725;50.836;4.368;2023-05-29T03:09:36;16.25;;;6.35;;
35602;SDS011;21725;50.836;4.368;2023-05-29T03:12:37;12.48;;;5.07;;
35602;SDS011;21725;50.836;4.368;2023-05-29T03:15:39;13.35;;;5.47;;
35602;SDS011;21725;50.836;4.368;2023-05-29T03:18:40;13.07;;;5.72;;
35602;SDS011;21725;50.836;4.368;2023-05-29T03:21:41;15.27;;;5.65;;
35602;SDS011;21725;50.836;4.368;2023-05-29T03:24:42;13.82;;;4.63;;
35602;SDS011;21725;50.836;4.368;2023-05-29T03:27:43;12.25;;;4.75;;
35602;SDS011;21725;50.836;4.368;2023-05-29T03:30:44;14.70;;;4.57;;
35602;SDS011;21725;50.836;4.368;2023-05-29T03:33:45;12.25;;;4.63;;
35602;SDS011;21725;50.836;4.368;2023-05-29T03:36:45;14.85;;;5.63;;
35602;SDS011;21725;50.836;4.368;2023-05-29T03:39:46;10.45;;;4.65;;
35602;SDS011;21725;50.836;4.368;2023-05-29T03:42:47;11.52;;;4.60;;
35602;SDS011;21725;50.836;4.368;2023-05-29T03:45:48;13.80;;;5.22;;
35602;SDS011;21725;50.836;4.368;2023-05-29T03:48:48;11.57;;;4.32;;
35602;SDS011;21725;50.836;4.368;2023-05-29T03:51:49;11.88;;;4.38;;
35602;SDS011;21725;50.836;4.368;2023-05-29T03:54:50;20.98;;;5.18;;
35602;SDS011;21725;50.836;4.368;2023-05-29T03:57:51;15.43;;;3.90;;
35602;SDS011;21725;50.836;4.368;2023-05-29T04:00:52;12.77;;;3.60;;
35602;SDS011;21725;50.836;4.368;2023-05-29T04:03:52;12.07;;;4.10;;
35602;SDS011;21725;50.836;4.368;2023-05-29T04:06:53;12.25;;;4.10;;
35602;SDS011;21725;50.836;4.368;2023-05-29T04:09:54;15.82;;;3.78;;
35602;SDS011;21725;50.836;4.368;2023-05-29T04:12:55;19.25;;;4.38;;
35602;SDS011;21725;50.836;4.368;2023-05-29T04:15:55;14.20;;;4.18;;
35602;SDS011;21725;50.836;4.368;2023-05-29T04:18:56;10.73;;;3.72;;
35602;SDS011;21725;50.836;4.368;2023-05-29T04:21:57;11.68;;;4.20;;
35602;SDS011;21725;50.836;4.368;2023-05-29T04:24:58;12.80;;;4.30;;
35602;SDS011;21725;50.836;4.368;2023-05-29T04:27:58;14.40;;;3.65;;
35602;SDS011;21725;50.836;4.368;2023-05-29T04:31:01;11.55;;;3.67;;
35602;SDS011;21725;50.836;4.368;2023-05-29T04:34:02;13.45;;;4.07;;
35602;SDS011;21725;50.836;4.368;2023-05-29T04:37:05;13.10;;;3.80;;
35602;SDS011;21725;50.836;4.368;2023-05-29T04:40:06;12.60;;;4.47;;
35602;SDS011;21725;50.836;4.368;2023-05-29T04:43:10;13.57;;;4.38;;
35602;SDS011;21725;50.836;4.368;2023-05-29T04:46:11;10.57;;;3.13;;
35602;SDS011;21725;50.836;4.368;2023-05-29T04:49:12;14.90;;;4.85;;
35602;SDS011;21725;50.836;4.368;2023-05-29T04:52:14;14.75;;;3.92;;
35602;SDS011;21725;50.836;4.368;2023-05-29T04:55:15;12.45;;;4.13;;
35602;SDS011;21725;50.836;4.368;2023-05-29T04:58:16;9.63;;;5.10;;
35602;SDS011;21725;50.836;4.368;2023-05-29T05:01:17;13.25;;;3.47;;
35602;SDS011;21725;50.836;4.368;2023-05-29T05:04:18;15.15;;;4.05;;
35602;SDS011;21725;50.836;4.368;2023-05-29T05:07:18;15.88;;;4.40;;
35602;SDS011;21725;50.836;4.368;2023-05-29T05:10:19;11.85;;;4.55;;
35602;SDS011;21725;50.836;4.368;2023-05-29T05:13:20;14.95;;;3.83;;
35602;SDS011;21725;50.836;4.368;2023-05-29T05:16:21;14.10;;;3.90;;
35602;SDS011;21725;50.836;4.368;2023-05-29T05:19:22;13.20;;;3.58;;
35602;SDS011;21725;50.836;4.368;2023-05-29T05:22:23;10.80;;;2.97;;
35602;SDS011;21725;50.836;4.368;2023-05-29T05:25:23;11.35;;;3.00;;
35602;SDS011;21725;50.836;4.368;2023-05-29T05:28:24;12.93;;;3.95;;
35602;SDS011;21725;50.836;4.368;2023-05-29T05:31:25;12.68;;;4.45;;
35602;SDS011;21725;50.836;4.368;2023-05-29T05:34:26;13.63;;;3.60;;
35602;SDS011;21725;50.836;4.368;2023-05-29T05:37:27;18.10;;;3.83;;
35602;SDS011;21725;50.836;4.368;2023-05-29T05:40:28;10.35;;;3.30;;
35602;SDS011;21725;50.836;4.368;2023-05-29T05:43:29;13.95;;;4.70;;
35602;SDS011;21725;50.836;4.368;2023-05-29T05:46:30;13.65;;;3.95;;
35602;SDS011;21725;50.836;4.368;2023-05-29T05:49:30;16.45;;;4.20;;
35602;SDS011;21725;50.836;4.368;2023-05-29T05:52:31;19.80;;;4.85;;
35602;SDS011;21725;50.836;4.368;2023-05-29T05:55:33;13.00;;;3.60;;
35602;SDS011;21725;50.836;4.368;2023-05-29T05:58:34;14.48;;;3.95;;
35602;SDS011;21725;50.836;4.368;2023-05-29T06:01:35;19.98;;;4.18;;
35602;SDS011;21725;50.836;4.368;2023-05-29T06:04:36;21.15;;;4.63;;
35602;SDS011;21725;50.836;4.368;2023-05-29T06:07:37;15.23;;;4.28;;
35602;SDS011;21725;50.836;4.368;2023-05-29T06:10:38;13.07;;;3.75;;
35602;SDS011;21725;50.836;4.368;2023-05-29T06:13:39;10.80;;;4.35;;
35602;SDS011;21725;50.836;4.368;2023-05-29T06:16:40;22.48;;;4.97;;
35602;SDS011;21725;50.836;4.368;2023-05-29T06:19:41;17.48;;;5.25;;
35602;SDS011;21725;50.836;4.368;2023-05-29T06:22:41;11.20;;;3.67;;
35602;SDS011;21725;50.836;4.368;2023-05-29T06:25:43;8.18;;;3.40;;
35602;SDS011;21725;50.836;4.368;2023-05-29T06:28:43;14.10;;;5.15;;
35602;SDS011;21725;50.836;4.368;2023-05-29T06:31:44;15.57;;;4.43;;
35602;SDS011;21725;50.836;4.368;2023-05-29T06:34:45;12.73;;;3.72;;
35602;SDS011;21725;50.836;4.368;2023-05-29T06:37:46;12.27;;;3.78;;
35602;SDS011;21725;50.836;4.368;2023-05-29T06:40:46;16.08;;;3.72;;
35602;SDS011;21725;50.836;4.368;2023-05-29T06:43:47;12.73;;;5.05;;
35602;SDS011;21725;50.836;4.368;2023-05-29T06:46:49;17.08;;;4.70;;
35602;SDS011;21725;50.836;4.368;2023-05-29T06:49:49;10.20;;;3.78;;
35602;SDS011;21725;50.836;4.368;2023-05-29T06:52:50;11.65;;;4.18;;
35602;SDS011;21725;50.836;4.368;2023-05-29T06:55:52;13.77;;;3.63;;
35602;SDS011;21725;50.836;4.368;2023-05-29T06:58:53;13.70;;;5.18;;
35602;SDS011;21725;50.836;4.368;2023-05-29T07:01:54;11.15;;;3.45;;
35602;SDS011;21725;50.836;4.368;2023-05-29T07:04:54;12.00;;;4.60;;
35602;SDS011;21725;50.836;4.368;2023-05-29T07:07:55;26.75;;;5.40;;
35602;SDS011;21725;50.836;4.368;2023-05-29T07:10:56;17.00;;;4.25;;
35602;SDS011;21725;50.836;4.368;2023-05-29T07:13:57;15.65;;;5.03;;
35602;SDS011;21725;50.836;4.368;2023-05-29T07:16:57;17.02;;;4.90;;
35602;SDS011;21725;50.836;4.368;2023-05-29T07:19:59;13.82;;;3.72;;
35602;SDS011;21725;50.836;4.368;2023-05-29T07:23:00;11.07;;;4.38;;
35602;SDS011;21725;50.836;4.368;2023-05-29T07:26:00;12.98;;;4.85;;
35602;SDS011;21725;50.836;4.368;2023-05-29T07:29:01;13.75;;;3.70;;
35602;SDS011;21725;50.836;4.368;2023-05-29T07:32:02;16.10;;;3.80;;
35602;SDS011;21725;50.836;4.368;2023-05-29T07:35:03;13.48;;;4.55;;
35602;SDS011;21725;50.836;4.368;2023-05-29T07:38:04;18.67;;;4.78;;
35602;SDS011;21725;50.836;4.368;2023-05-29T07:41:05;14.18;;;3.25;;
35602;SDS011;21725;50.836;4.368;2023-05-29T07:44:06;10.60;;;3.90;;
35602;SDS011;21725;50.836;4.368;2023-05-29T07:50:13;10.27;;;3.75;;
35602;SDS011;21725;50.836;4.368;2023-05-29T07:53:15;13.77;;;4.18;;
35602;SDS011;21725;50.836;4.368;2023-05-29T07:56:16;12.52;;;4.40;;
35602;SDS011;21725;50.836;4.368;2023-05-29T07:59:17;15.80;;;4.93;;
35602;SDS011;21725;50.836;4.368;2023-05-29T08:02:18;10.90;;;4.40;;
35602;SDS011;21725;50.836;4.368;2023-05-29T08:05:19;15.27;;;3.55;;
35602;SDS011;21725;50.836;4.368;2023-05-29T08:08:20;11.10;;;4.25;;
35602;SDS011;21725;50.836;4.368;2023-05-29T08:11:21;13.18;;;4.22;;
35602;SDS011;21725;50.836;4.368;2023-05-29T08:14:22;8.35;;;3.97;;
35602;SDS011;21725;50.836;4.368;2023-05-29T08:17:23;11.27;;;3.40;;
35602;SDS011;21725;50.836;4.368;2023-05-29T08:20:23;11.80;;;3.83;;
35602;SDS011;21725;50.836;4.368;2023-05-29T08:23:24;16.27;;;3.50;;
35602;SDS011;21725;50.836;4.368;2023-05-29T08:26:25;13.27;;;3.40;;
35602;SDS011;21725;50.836;4.368;2023-05-29T08:29:26;14.38;;;4.10;;
35602;SDS011;21725;50.836;4.368;2023-05-29T08:32:27;9.60;;;3.55;;
35602;SDS011;21725;50.836;4.368;2023-05-29T08:35:28;22.77;;;5.18;;
35602;SDS011;21725;50.836;4.368;2023-05-29T08:38:29;14.35;;;3.78;;
35602;SDS011;21725;50.836;4.368;2023-05-29T08:47:55;10.18;;;3.90;;
35602;SDS011;21725;50.836;4.368;2023-05-29T08:51:00;8.68;;;3.17;;
35602;SDS011;21725;50.836;4.368;2023-05-29T08:54:04;13.98;;;3.92;;
35602;SDS011;21725;50.836;4.368;2023-05-29T08:57:04;14.40;;;4.38;;
35602;SDS011;21725;50.836;4.368;2023-05-29T09:00:06;10.82;;;3.47;;
35602;SDS011;21725;50.836;4.368;2023-05-29T09:03:12;11.15;;;4.35;;
35602;SDS011;21725;50.836;4.368;2023-05-29T09:06:13;12.48;;;4.60;;
35602;SDS011;21725;50.836;4.368;2023-05-29T09:09:14;13.10;;;3.75;;
35602;SDS011;21725;50.836;4.368;2023-05-29T09:12:16;14.77;;;4.22;;
35602;SDS011;21725;50.836;4.368;2023-05-29T09:15:17;11.25;;;5.05;;
35602;SDS011;21725;50.836;4.368;2023-05-29T09:18:18;13.93;;;4.78;;
35602;SDS011;21725;50.836;4.368;2023-05-29T09:21:25;10.68;;;3.65;;
35602;SDS011;21725;50.836;4.368;2023-05-29T09:24:27;10.25;;;3.45;;
35602;SDS011;21725;50.836;4.368;2023-05-29T09:27:28;7.63;;;2.95;;
35602;SDS011;21725;50.836;4.368;2023-05-29T09:30:34;11.93;;;3.40;;
35602;SDS011;21725;50.836;4.368;2023-05-29T09:33:46;10.45;;;3.88;;
35602;SDS011;21725;50.836;4.368;2023-05-29T09:36:48;11.52;;;3.63;;
35602;SDS011;21725;50.836;4.368;2023-05-29T09:39:51;15.82;;;4.32;;
35602;SDS011;21725;50.836;4.368;2023-05-29T09:42:55;13.18;;;4.10;;
35602;SDS011;21725;50.836;4.368;2023-05-29T09:45:55;11.93;;;3.50;;
35602;SDS011;21725;50.836;4.368;2023-05-29T09:49:00;13.35;;;4.07;;
35602;SDS011;21725;50.836;4.368;2023-05-29T09:52:03;11.57;;;4.03;;
35602;SDS011;21725;50.836;4.368;2023-05-29T09:55:05;9.32;;;3.30;;
35602;SDS011;21725;50.836;4.368;2023-05-29T09:58:06;10.95;;;4.57;;
35602;SDS011;21725;50.836;4.368;2023-05-29T10:01:07;17.10;;;3.90;;
35602;SDS011;21725;50.836;4.368;2023-05-29T10:04:08;12.98;;;3.78;;
35602;SDS011;21725;50.836;4.368;2023-05-29T10:07:12;11.32;;;3.65;;
35602;SDS011;21725;50.836;4.368;2023-05-29T10:10:32;23.38;;;4.30;;
35602;SDS011;21725;50.836;4.368;2023-05-29T10:13:35;12.75;;;3.83;;
35602;SDS011;21725;50.836;4.368;2023-05-29T10:16:39;14.38;;;3.28;;
35602;SDS011;21725;50.836;4.368;2023-05-29T10:19:43;10.82;;;3.60;;
35602;SDS011;21725;50.836;4.368;2023-05-29T10:22:47;10.55;;;3.53;;
35602;SDS011;21725;50.836;4.368;2023-05-29T10:25:51;9.95;;;3.63;;
35602;SDS011;21725;50.836;4.368;2023-05-29T10:28:58;10.60;;;3.58;;
35602;SDS011;21725;50.836;4.368;2023-05-29T10:32:21;10.75;;;3.97;;
35602;SDS011;21725;50.836;4.368;2023-05-29T10:39:00;10.98;;;3.33;;
35602;SDS011;21725;50.836;4.368;2023-05-29T10:42:00;10.73;;;3.20;;
35602;SDS011;21725;50.836;4.368;2023-05-29T10:45:02;11.52;;;3.40;;
35602;SDS011;21725;50.836;4.368;2023-05-29T10:51:07;11.70;;;4.15;;
35602;SDS011;21725;50.836;4.368;2023-05-29T10:54:08;11.70;;;3.60;;
35602;SDS011;21725;50.836;4.368;2023-05-29T10:57:10;9.52;;;3.88;;
35602;SDS011;21725;50.836;4.368;2023-05-29T11:00:10;11.05;;;3.60;;
35602;SDS011;21725;50.836;4.368;2023-05-29T11:03:39;11.85;;;4.20;;
35602;SDS011;21725;50.836;4.368;2023-05-29T11:06:39;11.40;;;3.38;;
35602;SDS011;21725;50.836;4.368;2023-05-29T11:09:40;11.48;;;4.53;;
35602;SDS011;21725;50.836;4.368;2023-05-29T11:12:56;9.75;;;3.58;;
35602;SDS011;21725;50.836;4.368;2023-05-29T11:16:14;11.18;;;3.30;;
35602;SDS011;21725;50.836;4.368;2023-05-29T11:19:19;12.00;;;3.90;;
35602;SDS011;21725;50.836;4.368;2023-05-29T11:22:21;12.65;;;3.80;;
35602;SDS011;21725;50.836;4.368;2023-05-29T11:25:27;12.77;;;3.22;;
35602;SDS011;21725;50.836;4.368;2023-05-29T11:28:29;7.72;;;3.15;;
35602;SDS011;21725;50.836;4.368;2023-05-29T11:31:31;12.00;;;3.17;;
35602;SDS011;21725;50.836;4.368;2023-05-29T11:34:35;16.35;;;4.20;;
35602;SDS011;21725;50.836;4.368;2023-05-29T11:37:41;13.23;;;3.55;;
35602;SDS011;21725;50.836;4.368;2023-05-29T11:40:51;14.48;;;3.40;;
35602;SDS011;21725;50.836;4.368;2023-05-29T11:44:03;14.90;;;4.82;;
35602;SDS011;21725;50.836;4.368;2023-05-29T11:47:06;14.65;;;4.60;;
35602;SDS011;21725;50.836;4.368;2023-05-29T11:50:20;21.17;;;4.45;;
35602;SDS011;21725;50.836;4.368;2023-05-29T11:53:25;9.63;;;3.17;;
35602;SDS011;21725;50.836;4.368;2023-05-29T11:56:29;5.88;;;3.10;;
35602;SDS011;21725;50.836;4.368;2023-05-29T11:59:32;10.38;;;3.53;;
35602;SDS011;21725;50.836;4.368;2023-05-29T12:02:33;11.38;;;3.38;;
35602;SDS011;21725;50.836;4.368;2023-05-29T12:05:49;9.75;;;2.92;;
35602;SDS011;21725;50.836;4.368;2023-05-29T12:08:52;10.60;;;3.55;;
35602;SDS011;21725;50.836;4.368;2023-05-29T12:12:02;8.95;;;3.25;;
35602;SDS011;21725;50.836;4.368;2023-05-29T12:15:04;9.00;;;3.47;;
35602;SDS011;21725;50.836;4.368;2023-05-29T12:18:06;11.23;;;3.60;;
35602;SDS011;21725;50.836;4.368;2023-05-29T12:21:08;10.52;;;3.92;;
35602;SDS011;21725;50.836;4.368;2023-05-29T12:24:08;9.40;;;3.08;;
35602;SDS011;21725;50.836;4.368;2023-05-29T12:27:09;12.05;;;3.38;;
35602;SDS011;21725;50.836;4.368;2023-05-29T12:30:10;10.70;;;3.03;;
35602;SDS011;21725;50.836;4.368;2023-05-29T12:33:33;13.80;;;3.97;;
35602;SDS011;21725;50.836;4.368;2023-05-29T12:36:34;9.48;;;3.60;;
35602;SDS011;21725;50.836;4.368;2023-05-29T12:39:35;6.90;;;3.20;;
35602;SDS011;21725;50.836;4.368;2023-05-29T12:42:37;13.90;;;3.63;;
35602;SDS011;21725;50.836;4.368;2023-05-29T12:45:38;10.80;;;3.25;;
35602;SDS011;21725;50.836;4.368;2023-05-29T12:48:39;9.73;;;3.78;;
35602;SDS011;21725;50.836;4.368;2023-05-29T12:51:40;11.05;;;3.08;;
35602;SDS011;21725;50.836;4.368;2023-05-29T12:54:43;7.22;;;2.83;;
35602;SDS011;21725;50.836;4.368;2023-05-29T12:57:43;11.40;;;4.45;;
35602;SDS011;21725;50.836;4.368;2023-05-29T13:00:46;11.05;;;3.38;;
35602;SDS011;21725;50.836;4.368;2023-05-29T13:03:47;8.88;;;3.22;;
35602;SDS011;21725;50.836;4.368;2023-05-29T13:06:48;12.07;;;3.10;;
35602;SDS011;21725;50.836;4.368;2023-05-29T13:09:49;12.77;;;4.53;;
35602;SDS011;21725;50.836;4.368;2023-05-29T13:12:50;9.32;;;3.47;;
35602;SDS011;21725;50.836;4.368;2023-05-29T13:15:54;12.48;;;3.70;;
35602;SDS011;21725;50.836;4.368;2023-05-29T13:18:55;11.13;;;3.22;;
35602;SDS011;21725;50.836;4.368;2023-05-29T13:21:55;8.77;;;2.90;;
35602;SDS011;21725;50.836;4.368;2023-05-29T13:24:57;13.43;;;3.65;;
35602;SDS011;21725;50.836;4.368;2023-05-29T13:27:59;11.23;;;3.65;;
35602;SDS011;21725;50.836;4.368;2023-05-29T13:31:00;9.57;;;3.88;;
35602;SDS011;21725;50.836;4.368;2023-05-29T13:34:00;11.45;;;3.42;;
35602;SDS011;21725;50.836;4.368;2023-05-29T13:37:01;11.40;;;2.83;;
35602;SDS011;21725;50.836;4.368;2023-05-29T13:40:02;11.40;;;3.80;;
35602;SDS011;21725;50.836;4.368;2023-05-29T13:43:04;10.60;;;3.53;;
35602;SDS011;21725;50.836;4.368;2023-05-29T13:46:05;9.25;;;3.28;;
35602;SDS011;21725;50.836;4.368;2023-05-29T13:49:06;11.80;;;3.38;;
35602;SDS011;21725;50.836;4.368;2023-05-29T13:52:09;10.35;;;3.97;;
35602;SDS011;21725;50.836;4.368;2023-05-29T13:55:10;10.82;;;2.83;;
35602;SDS011;21725;50.836;4.368;2023-05-29T13:58:11;10.95;;;3.35;;
35602;SDS011;21725;50.836;4.368;2023-05-29T14:01:12;9.38;;;3.17;;
35602;SDS011;21725;50.836;4.368;2023-05-29T14:04:14;8.57;;;3.35;;
35602;SDS011;21725;50.836;4.368;2023-05-29T14:07:15;10.75;;;3.47;;
35602;SDS011;21725;50.836;4.368;2023-05-29T14:10:16;8.00;;;3.42;;
35602;SDS011;21725;50.836;4.368;2023-05-29T14:13:16;6.68;;;3.28;;
35602;SDS011;21725;50.836;4.368;2023-05-29T14:16:17;11.60;;;3.63;;
35602;SDS011;21725;50.836;4.368;2023-05-29T14:19:18;11.85;;;3.58;;
35602;SDS011;21725;50.836;4.368;2023-05-29T14:22:19;8.70;;;2.85;;
35602;SDS011;21725;50.836;4.368;2023-05-29T14:25:20;10.65;;;3.35;;
35602;SDS011;21725;50.836;4.368;2023-05-29T14:28:21;11.50;;;3.40;;
35602;SDS011;21725;50.836;4.368;2023-05-29T14:31:21;7.55;;;3.00;;
35602;SDS011;21725;50.836;4.368;2023-05-29T14:34:22;7.07;;;3.10;;
35602;SDS011;21725;50.836;4.368;2023-05-29T14:37:23;6.82;;;2.90;;
35602;SDS011;21725;50.836;4.368;2023-05-29T14:40:24;14.00;;;3.95;;
35602;SDS011;21725;50.836;4.368;2023-05-29T14:43:25;13.77;;;3.75;;
35602;SDS011;21725;50.836;4.368;2023-05-29T14:46:26;11.75;;;3.20;;
35602;SDS011;21725;50.836;4.368;2023-05-29T14:49:30;8.13;;;2.92;;
35602;SDS011;21725;50.836;4.368;2023-05-29T14:52:32;14.02;;;3.88;;
35602;SDS011;21725;50.836;4.368;2023-05-29T14:55:33;9.57;;;3.30;;
35602;SDS011;21725;50.836;4.368;2023-05-29T14:58:37;11.38;;;3.40;;
35602;SDS011;21725;50.836;4.368;2023-05-29T15:01:38;11.80;;;4.40;;
35602;SDS011;21725;50.836;4.368;2023-05-29T15:04:39;11.15;;;3.75;;
35602;SDS011;21725;50.836;4.368;2023-05-29T15:07:39;10.82;;;4.85;;
35602;SDS011;21725;50.836;4.368;2023-05-29T15:10:40;9.63;;;3.58;;
35602;SDS011;21725;50.836;4.368;2023-05-29T15:13:41;10.13;;;3.85;;
35602;SDS011;21725;50.836;4.368;2023-05-29T15:16:42;10.02;;;3.08;;
35602;SDS011;21725;50.836;4.368;2023-05-29T15:19:44;12.98;;;4.18;;
35602;SDS011;21725;50.836;4.368;2023-05-29T15:22:45;8.18;;;2.90;;
35602;SDS011;21725;50.836;4.368;2023-05-29T15:25:47;11.05;;;3.80;;
35602;SDS011;21725;50.836;4.368;2023-05-29T15:28:49;11.13;;;3.03;;
35602;SDS011;21725;50.836;4.368;2023-05-29T15:31:50;11.43;;;3.33;;
35602;SDS011;21725;50.836;4.368;2023-05-29T15:34:50;10.40;;;3.20;;
35602;SDS011;21725;50.836;4.368;2023-05-29T15:37:51;12.18;;;3.80;;
35602;SDS011;21725;50.836;4.368;2023-05-29T15:40:52;13.82;;;3.17;;
35602;SDS011;21725;50.836;4.368;2023-05-29T15:43:56;8.95;;;3.65;;
35602;SDS011;21725;50.836;4.368;2023-05-29T15:46:57;8.68;;;2.97;;
35602;SDS011;21725;50.836;4.368;2023-05-29T15:49:58;11.90;;;3.55;;
35602;SDS011;21725;50.836;4.368;2023-05-29T15:52:58;7.68;;;3.20;;
35602;SDS011;21725;50.836;4.368;2023-05-29T15:55:59;9.95;;;3.47;;
35602;SDS011;21725;50.836;4.368;2023-05-29T15:59:00;5.47;;;2.40;;
35602;SDS011;21725;50.836;4.368;2023-05-29T16:02:02;8.18;;;3.13;;
35602;SDS011;21725;50.836;4.368;2023-05-29T16:05:04;6.50;;;3.15;;
35602;SDS011;21725;50.836;4.368;2023-05-29T16:08:05;9.95;;;3.25;;
35602;SDS011;21725;50.836;4.368;2023-05-29T16:11:07;12.02;;;3.50;;
35602;SDS011;21725;50.836;4.368;2023-05-29T16:14:08;12.05;;;4.30;;
35602;SDS011;21725;50.836;4.368;2023-05-29T16:17:08;9.50;;;3.50;;
35602;SDS011;21725;50.836;4.368;2023-05-29T16:20:09;13.13;;;3.78;;
35602;SDS011;21725;50.836;4.368;2023-05-29T16:23:12;7.10;;;3.00;;
35602;SDS011;21725;50.836;4.368;2023-05-29T16:26:12;11.10;;;4.18;;
35602;SDS011;21725;50.836;4.368;2023-05-29T16:29:13;10.90;;;3.10;;
35602;SDS011;21725;50.836;4.368;2023-05-29T16:32:14;13.70;;;3.53;;
35602;SDS011;21725;50.836;4.368;2023-05-29T16:35:15;8.60;;;3.13;;
35602;SDS011;21725;50.836;4.368;2023-05-29T16:38:16;12.18;;;3.03;;
35602;SDS011;21725;50.836;4.368;2023-05-29T16:41:17;11.30;;;3.30;;
35602;SDS011;21725;50.836;4.368;2023-05-29T16:44:17;7.63;;;3.00;;
35602;SDS011;21725;50.836;4.368;2023-05-29T16:47:18;10.60;;;3.33;;
35602;SDS011;21725;50.836;4.368;2023-05-29T16:50:19;12.00;;;3.45;;
35602;SDS011;21725;50.836;4.368;2023-05-29T16:53:21;10.88;;;3.40;;
35602;SDS011;21725;50.836;4.368;2023-05-29T16:56:22;11.32;;;3.63;;
35602;SDS011;21725;50.836;4.368;2023-05-29T16:59:22;8.75;;;2.83;;
35602;SDS011;21725;50.836;4.368;2023-05-29T17:02:26;7.70;;;3.30;;
35602;SDS011;21725;50.836;4.368;2023-05-29T17:05:27;11.23;;;4.05;;
35602;SDS011;21725;50.836;4.368;2023-05-29T17:08:28;10.60;;;3.22;;
35602;SDS011;21725;50.836;4.368;2023-05-29T17:11:28;8.82;;;3.20;;
35602;SDS011;21725;50.836;4.368;2023-05-29T17:14:29;12.32;;;4.60;;
35602;SDS011;21725;50.836;4.368;2023-05-29T17:17:30;12.10;;;4.10;;
35602;SDS011;21725;50.836;4.368;2023-05-29T17:20:31;12.05;;;3.53;;
35602;SDS011;21725;50.836;4.368;2023-05-29T17:23:32;9.68;;;3.47;;
35602;SDS011;21725;50.836;4.368;2023-05-29T17:26:33;10.65;;;3.10;;
35602;SDS011;21725;50.836;4.368;2023-05-29T17:29:33;10.57;;;3.72;;
35602;SDS011;21725;50.836;4.368;2023-05-29T17:32:34;14.27;;;4.28;;
35602;SDS011;21725;50.836;4.368;2023-05-29T17:35:35;10.68;;;2.92;;
35602;SDS011;21725;50.836;4.368;2023-05-29T17:38:36;13.48;;;3.10;;
35602;SDS011;21725;50.836;4.368;2023-05-29T17:41:36;13.18;;;3.75;;
35602;SDS011;21725;50.836;4.368;2023-05-29T17:44:37;7.80;;;3.30;;
35602;SDS011;21725;50.836;4.368;2023-05-29T17:47:38;8.32;;;3.42;;
35602;SDS011;21725;50.836;4.368;2023-05-29T17:50:40;7.50;;;2.92;;
35602;SDS011;21725;50.836;4.368;2023-05-29T17:53:40;9.30;;;3.67;;
35602;SDS011;21725;50.836;4.368;2023-05-29T17:56:41;9.23;;;3.05;;
35602;SDS011;21725;50.836;4.368;2023-05-29T17:59:42;8.95;;;4.05;;
35602;SDS011;21725;50.836;4.368;2023-05-29T18:02:43;10.15;;;3.00;;
35602;SDS011;21725;50.836;4.368;2023-05-29T18:05:44;11.73;;;3.47;;
35602;SDS011;21725;50.836;4.368;2023-05-29T18:08:45;11.95;;;3.70;;
35602;SDS011;21725;50.836;4.368;2023-05-29T18:11:46;7.28;;;2.83;;
35602;SDS011;21725;50.836;4.368;2023-05-29T18:14:47;17.45;;;4.13;;
35602;SDS011;21725;50.836;4.368;2023-05-29T18:17:49;11.43;;;3.53;;
35602;SDS011;21725;50.836;4.368;2023-05-29T18:21:01;11.30;;;3.00;;
35602;SDS011;21725;50.836;4.368;2023-05-29T18:24:02;9.63;;;3.13;;
35602;SDS011;21725;50.836;4.368;2023-05-29T18:27:03;12.27;;;3.42;;